sensor_id;sensor_type;location;lat;lon;timestamp;P1;durP1;ratioP1;P2;durP2;ratioP2
36923;SDS011;22841;50.252;18.688;2023-04-02T00:00:26;65.43;;;37.92;;
36923;SDS011;22841;50.252;18.688;2023-04-02T00:05:26;57.35;;;34.22;;
36923;SDS011;22841;50.252;18.688;2023-04-02T00:07:59;67.57;;;35.85;;
36923;SDS011;22841;50.252;18.688;2023-04-02T00:10:28;56.97;;;33.55;;
36923;SDS011;22841;50.252;18.688;2023-04-02T00:13:03;79.40;;;46.17;;
36923;SDS011;22841;50.252;18.688;2023-04-02T00:15:32;224.63;;;115.88;;
36923;SDS011;22841;50.252;18.688;2023-04-02T00:17:58;279.13;;;138.80;;
36923;SDS011;22841;50.252;18.688;2023-04-02T00:20:25;237.25;;;139.55;;
36923;SDS011;22841;50.252;18.688;2023-04-02T00:22:53;206.48;;;119.22;;
36923;SDS011;22841;50.252;18.688;2023-04-02T00:25:21;196.43;;;112.50;;
36923;SDS011;22841;50.252;18.688;2023-04-02T00:27:51;170.52;;;102.28;;
36923;SDS011;22841;50.252;18.688;2023-04-02T00:30:17;172.82;;;91.55;;
36923;SDS011;22841;50.252;18.688;2023-04-02T00:32:43;134.50;;;74.82;;
36923;SDS011;22841;50.252;18.688;2023-04-02T00:35:11;125.32;;;68.47;;
36923;SDS011;22841;50.252;18.688;2023-04-02T00:37:43;107.03;;;61.65;;
36923;SDS011;22841;50.252;18.688;2023-04-02T00:42:45;95.53;;;53.65;;
36923;SDS011;22841;50.252;18.688;2023-04-02T00:45:15;97.00;;;49.40;;
36923;SDS011;22841;50.252;18.688;2023-04-02T00:47:47;60.72;;;37.25;;
36923;SDS011;22841;50.252;18.688;2023-04-02T00:52:44;65.70;;;36.30;;
36923;SDS011;22841;50.252;18.688;2023-04-02T00:55:19;59.50;;;33.85;;
36923;SDS011;22841;50.252;18.688;2023-04-02T00:57:49;60.85;;;32.47;;
36923;SDS011;22841;50.252;18.688;2023-04-02T01:00:50;57.15;;;31.98;;
36923;SDS011;22841;50.252;18.688;2023-04-02T01:05:42;62.47;;;31.70;;
36923;SDS011;22841;50.252;18.688;2023-04-02T01:11:15;62.17;;;34.40;;
36923;SDS011;22841;50.252;18.688;2023-04-02T01:16:39;72.78;;;33.67;;
36923;SDS011;22841;50.252;18.688;2023-04-02T01:22:06;74.28;;;35.15;;
36923;SDS011;22841;50.252;18.688;2023-04-02T01:24:42;62.58;;;33.25;;
36923;SDS011;22841;50.252;18.688;2023-04-02T01:27:16;69.90;;;33.25;;
36923;SDS011;22841;50.252;18.688;2023-04-02T01:29:53;67.93;;;33.47;;
36923;SDS011;22841;50.252;18.688;2023-04-02T01:34:50;76.75;;;35.83;;
36923;SDS011;22841;50.252;18.688;2023-04-02T01:40:26;92.90;;;35.63;;
36923;SDS011;22841;50.252;18.688;2023-04-02T01:45:51;69.07;;;34.90;;
36923;SDS011;22841;50.252;18.688;2023-04-02T01:48:21;71.32;;;35.60;;
36923;SDS011;22841;50.252;18.688;2023-04-02T01:50:52;67.05;;;33.90;;
36923;SDS011;22841;50.252;18.688;2023-04-02T01:53:22;67.78;;;34.58;;
36923;SDS011;22841;50.252;18.688;2023-04-02T01:55:52;71.50;;;36.67;;
36923;SDS011;22841;50.252;18.688;2023-04-02T01:58:25;65.85;;;35.03;;
36923;SDS011;22841;50.252;18.688;2023-04-02T02:03:25;77.57;;;33.65;;
36923;SDS011;22841;50.252;18.688;2023-04-02T02:05:52;74.80;;;33.75;;
36923;SDS011;22841;50.252;18.688;2023-04-02T02:08:38;71.45;;;35.08;;
36923;SDS011;22841;50.252;18.688;2023-04-02T02:11:11;75.43;;;36.65;;
36923;SDS011;22841;50.252;18.688;2023-04-02T02:13:49;83.07;;;37.45;;
36923;SDS011;22841;50.252;18.688;2023-04-02T02:16:19;81.78;;;38.58;;
36923;SDS011;22841;50.252;18.688;2023-04-02T02:18:51;104.43;;;39.63;;
36923;SDS011;22841;50.252;18.688;2023-04-02T02:21:26;75.45;;;35.00;;
36923;SDS011;22841;50.252;18.688;2023-04-02T02:24:02;71.60;;;33.90;;
36923;SDS011;22841;50.252;18.688;2023-04-02T02:26:29;65.95;;;35.13;;
36923;SDS011;22841;50.252;18.688;2023-04-02T02:29:00;76.80;;;35.40;;
36923;SDS011;22841;50.252;18.688;2023-04-02T02:31:29;97.45;;;37.22;;
36923;SDS011;22841;50.252;18.688;2023-04-02T02:33:59;76.38;;;34.08;;
36923;SDS011;22841;50.252;18.688;2023-04-02T02:36:42;73.85;;;34.95;;
36923;SDS011;22841;50.252;18.688;2023-04-02T02:39:21;85.35;;;38.58;;
36923;SDS011;22841;50.252;18.688;2023-04-02T02:42:17;80.05;;;37.28;;
36923;SDS011;22841;50.252;18.688;2023-04-02T02:45:04;91.25;;;39.28;;
36923;SDS011;22841;50.252;18.688;2023-04-02T02:47:35;84.22;;;39.08;;
36923;SDS011;22841;50.252;18.688;2023-04-02T02:50:05;83.63;;;37.60;;
36923;SDS011;22841;50.252;18.688;2023-04-02T02:52:34;82.57;;;38.75;;
36923;SDS011;22841;50.252;18.688;2023-04-02T02:55:05;86.53;;;38.50;;
36923;SDS011;22841;50.252;18.688;2023-04-02T02:57:46;97.40;;;39.83;;
36923;SDS011;22841;50.252;18.688;2023-04-02T03:00:15;90.35;;;41.10;;
36923;SDS011;22841;50.252;18.688;2023-04-02T03:02:43;86.53;;;38.90;;
36923;SDS011;22841;50.252;18.688;2023-04-02T03:05:18;96.45;;;40.38;;
36923;SDS011;22841;50.252;18.688;2023-04-02T03:07:46;85.88;;;39.13;;
36923;SDS011;22841;50.252;18.688;2023-04-02T03:10:31;92.22;;;42.42;;
36923;SDS011;22841;50.252;18.688;2023-04-02T03:18:36;94.38;;;41.20;;
36923;SDS011;22841;50.252;18.688;2023-04-02T03:21:16;115.03;;;46.58;;
36923;SDS011;22841;50.252;18.688;2023-04-02T03:24:03;143.00;;;50.55;;
36923;SDS011;22841;50.252;18.688;2023-04-02T03:26:47;124.85;;;46.88;;
36923;SDS011;22841;50.252;18.688;2023-04-02T03:29:18;170.38;;;51.58;;
36923;SDS011;22841;50.252;18.688;2023-04-02T03:32:06;154.40;;;52.83;;
36923;SDS011;22841;50.252;18.688;2023-04-02T03:37:47;161.25;;;52.83;;
36923;SDS011;22841;50.252;18.688;2023-04-02T03:40:25;152.10;;;51.50;;
36923;SDS011;22841;50.252;18.688;2023-04-02T03:43:00;159.77;;;53.03;;
36923;SDS011;22841;50.252;18.688;2023-04-02T03:45:36;136.55;;;50.35;;
36923;SDS011;22841;50.252;18.688;2023-04-02T03:48:14;125.47;;;45.35;;
36923;SDS011;22841;50.252;18.688;2023-04-02T03:53:24;106.10;;;35.75;;
36923;SDS011;22841;50.252;18.688;2023-04-02T03:55:52;86.40;;;33.03;;
36923;SDS011;22841;50.252;18.688;2023-04-02T03:58:23;94.05;;;33.15;;
36923;SDS011;22841;50.252;18.688;2023-04-02T04:03:41;97.72;;;31.55;;
36923;SDS011;22841;50.252;18.688;2023-04-02T04:06:17;85.15;;;30.67;;
36923;SDS011;22841;50.252;18.688;2023-04-02T04:08:49;80.47;;;32.45;;
36923;SDS011;22841;50.252;18.688;2023-04-02T04:11:35;105.38;;;36.00;;
36923;SDS011;22841;50.252;18.688;2023-04-02T04:16:44;89.50;;;36.45;;
36923;SDS011;22841;50.252;18.688;2023-04-02T04:19:29;92.97;;;35.28;;
36923;SDS011;22841;50.252;18.688;2023-04-02T04:22:07;94.03;;;33.70;;
36923;SDS011;22841;50.252;18.688;2023-04-02T04:24:47;102.78;;;31.73;;
36923;SDS011;22841;50.252;18.688;2023-04-02T04:32:54;84.90;;;33.22;;
36923;SDS011;22841;50.252;18.688;2023-04-02T04:35:27;98.07;;;31.60;;
36923;SDS011;22841;50.252;18.688;2023-04-02T04:37:56;84.82;;;30.65;;
36923;SDS011;22841;50.252;18.688;2023-04-02T04:40:43;78.55;;;29.90;;
36923;SDS011;22841;50.252;18.688;2023-04-02T04:43:20;63.22;;;27.83;;
36923;SDS011;22841;50.252;18.688;2023-04-02T04:45:55;63.42;;;26.88;;
36923;SDS011;22841;50.252;18.688;2023-04-02T04:48:37;53.70;;;24.40;;
36923;SDS011;22841;50.252;18.688;2023-04-02T04:51:32;42.63;;;21.02;;
36923;SDS011;22841;50.252;18.688;2023-04-02T04:54:10;25.60;;;14.93;;
36923;SDS011;22841;50.252;18.688;2023-04-02T04:56:38;28.02;;;15.45;;
36923;SDS011;22841;50.252;18.688;2023-04-02T04:59:12;28.75;;;15.15;;
36923;SDS011;22841;50.252;18.688;2023-04-02T05:04:34;22.25;;;12.93;;
36923;SDS011;22841;50.252;18.688;2023-04-02T05:15:23;15.95;;;10.50;;
36923;SDS011;22841;50.252;18.688;2023-04-02T05:17:58;15.70;;;9.70;;
36923;SDS011;22841;50.252;18.688;2023-04-02T05:23:27;15.68;;;8.93;;
36923;SDS011;22841;50.252;18.688;2023-04-02T05:28:47;17.75;;;11.27;;
36923;SDS011;22841;50.252;18.688;2023-04-02T05:31:19;16.42;;;11.40;;
36923;SDS011;22841;50.252;18.688;2023-04-02T05:33:51;20.17;;;9.68;;
36923;SDS011;22841;50.252;18.688;2023-04-02T05:36:19;17.92;;;10.23;;
36923;SDS011;22841;50.252;18.688;2023-04-02T05:38:55;14.40;;;9.23;;
36923;SDS011;22841;50.252;18.688;2023-04-02T05:44:02;9.10;;;6.18;;
36923;SDS011;22841;50.252;18.688;2023-04-02T05:46:35;9.75;;;6.03;;
36923;SDS011;22841;50.252;18.688;2023-04-02T05:49:08;12.90;;;6.32;;
36923;SDS011;22841;50.252;18.688;2023-04-02T05:51:46;10.18;;;5.93;;
36923;SDS011;22841;50.252;18.688;2023-04-02T05:54:20;11.13;;;6.88;;
36923;SDS011;22841;50.252;18.688;2023-04-02T05:57:12;12.27;;;5.80;;
36923;SDS011;22841;50.252;18.688;2023-04-02T05:59:43;9.20;;;5.53;;
36923;SDS011;22841;50.252;18.688;2023-04-02T06:05:21;7.47;;;4.47;;
36923;SDS011;22841;50.252;18.688;2023-04-02T06:08:02;8.20;;;4.57;;
36923;SDS011;22841;50.252;18.688;2023-04-02T06:10:33;6.00;;;4.40;;
36923;SDS011;22841;50.252;18.688;2023-04-02T06:13:21;7.72;;;4.50;;
36923;SDS011;22841;50.252;18.688;2023-04-02T06:15:47;6.75;;;4.38;;
36923;SDS011;22841;50.252;18.688;2023-04-02T06:18:14;7.82;;;4.57;;
36923;SDS011;22841;50.252;18.688;2023-04-02T06:20:46;9.95;;;5.82;;
36923;SDS011;22841;50.252;18.688;2023-04-02T06:23:14;9.18;;;5.10;;
36923;SDS011;22841;50.252;18.688;2023-04-02T06:25:55;8.77;;;4.88;;
36923;SDS011;22841;50.252;18.688;2023-04-02T06:28:34;6.63;;;4.13;;
36923;SDS011;22841;50.252;18.688;2023-04-02T06:31:09;7.15;;;4.85;;
36923;SDS011;22841;50.252;18.688;2023-04-02T06:33:43;7.45;;;3.75;;
36923;SDS011;22841;50.252;18.688;2023-04-02T06:36:09;5.43;;;3.42;;
36923;SDS011;22841;50.252;18.688;2023-04-02T06:38:36;4.38;;;3.10;;
36923;SDS011;22841;50.252;18.688;2023-04-02T06:41:04;6.00;;;3.70;;
36923;SDS011;22841;50.252;18.688;2023-04-02T06:46:37;3.50;;;2.70;;
36923;SDS011;22841;50.252;18.688;2023-04-02T06:51:49;22.40;;;6.10;;
36923;SDS011;22841;50.252;18.688;2023-04-02T06:54:19;6.20;;;3.00;;
36923;SDS011;22841;50.252;18.688;2023-04-02T06:56:46;37.42;;;9.80;;
36923;SDS011;22841;50.252;18.688;2023-04-02T06:59:17;17.90;;;6.95;;
36923;SDS011;22841;50.252;18.688;2023-04-02T07:01:51;8.05;;;3.65;;
36923;SDS011;22841;50.252;18.688;2023-04-02T07:04:23;8.32;;;4.45;;
36923;SDS011;22841;50.252;18.688;2023-04-02T07:06:49;8.65;;;4.07;;
36923;SDS011;22841;50.252;18.688;2023-04-02T07:09:16;7.43;;;3.80;;
36923;SDS011;22841;50.252;18.688;2023-04-02T07:11:43;10.65;;;6.28;;
36923;SDS011;22841;50.252;18.688;2023-04-02T07:14:10;10.63;;;6.75;;
36923;SDS011;22841;50.252;18.688;2023-04-02T07:16:37;4.25;;;3.22;;
36923;SDS011;22841;50.252;18.688;2023-04-02T07:19:05;14.10;;;10.57;;
36923;SDS011;22841;50.252;18.688;2023-04-02T07:21:31;4.78;;;3.60;;
36923;SDS011;22841;50.252;18.688;2023-04-02T07:23:58;5.07;;;3.58;;
36923;SDS011;22841;50.252;18.688;2023-04-02T07:26:25;5.47;;;3.50;;
36923;SDS011;22841;50.252;18.688;2023-04-02T07:28:53;2.17;;;1.83;;
36923;SDS011;22841;50.252;18.688;2023-04-02T07:31:21;3.75;;;1.88;;
36923;SDS011;22841;50.252;18.688;2023-04-02T07:33:49;3.50;;;2.67;;
36923;SDS011;22841;50.252;18.688;2023-04-02T07:36:20;2.78;;;2.08;;
36923;SDS011;22841;50.252;18.688;2023-04-02T07:38:48;2.97;;;2.20;;
36923;SDS011;22841;50.252;18.688;2023-04-02T07:41:14;2.67;;;2.15;;
36923;SDS011;22841;50.252;18.688;2023-04-02T07:43:40;3.17;;;2.50;;
36923;SDS011;22841;50.252;18.688;2023-04-02T07:46:08;3.92;;;2.78;;
36923;SDS011;22841;50.252;18.688;2023-04-02T07:48:35;5.80;;;2.55;;
36923;SDS011;22841;50.252;18.688;2023-04-02T07:51:01;4.32;;;3.30;;
36923;SDS011;22841;50.252;18.688;2023-04-02T07:53:29;5.72;;;3.55;;
36923;SDS011;22841;50.252;18.688;2023-04-02T07:56:00;11.77;;;4.25;;
36923;SDS011;22841;50.252;18.688;2023-04-02T07:58:28;5.35;;;4.03;;
36923;SDS011;22841;50.252;18.688;2023-04-02T08:00:55;3.53;;;2.80;;
36923;SDS011;22841;50.252;18.688;2023-04-02T08:03:21;4.50;;;3.58;;
36923;SDS011;22841;50.252;18.688;2023-04-02T08:05:51;4.65;;;3.13;;
36923;SDS011;22841;50.252;18.688;2023-04-02T08:10:46;4.43;;;3.35;;
36923;SDS011;22841;50.252;18.688;2023-04-02T08:13:13;3.88;;;3.10;;
36923;SDS011;22841;50.252;18.688;2023-04-02T08:15:40;4.45;;;3.20;;
36923;SDS011;22841;50.252;18.688;2023-04-02T08:18:07;3.63;;;2.63;;
36923;SDS011;22841;50.252;18.688;2023-04-02T08:20:33;3.35;;;2.83;;
36923;SDS011;22841;50.252;18.688;2023-04-02T08:22:59;4.55;;;2.85;;
36923;SDS011;22841;50.252;18.688;2023-04-02T08:25:26;4.93;;;3.45;;
36923;SDS011;22841;50.252;18.688;2023-04-02T08:27:52;4.85;;;3.83;;
36923;SDS011;22841;50.252;18.688;2023-04-02T08:30:18;5.28;;;4.22;;
36923;SDS011;22841;50.252;18.688;2023-04-02T08:32:45;6.88;;;4.78;;
36923;SDS011;22841;50.252;18.688;2023-04-02T08:35:12;7.38;;;4.47;;
36923;SDS011;22841;50.252;18.688;2023-04-02T08:37:41;7.18;;;5.22;;
36923;SDS011;22841;50.252;18.688;2023-04-02T08:40:09;5.63;;;4.50;;
36923;SDS011;22841;50.252;18.688;2023-04-02T08:43:36;9.48;;;5.53;;
36923;SDS011;22841;50.252;18.688;2023-04-02T08:46:03;34.58;;;15.80;;
36923;SDS011;22841;50.252;18.688;2023-04-02T08:48:56;29.23;;;15.05;;
36923;SDS011;22841;50.252;18.688;2023-04-02T08:51:25;16.83;;;11.88;;
36923;SDS011;22841;50.252;18.688;2023-04-02T08:56:41;13.35;;;9.73;;
36923;SDS011;22841;50.252;18.688;2023-04-02T08:59:26;16.27;;;10.90;;
36923;SDS011;22841;50.252;18.688;2023-04-02T09:02:12;16.85;;;11.27;;
36923;SDS011;22841;50.252;18.688;2023-04-02T09:05:01;19.70;;;13.18;;
36923;SDS011;22841;50.252;18.688;2023-04-02T09:07:30;23.80;;;14.50;;
36923;SDS011;22841;50.252;18.688;2023-04-02T09:09:58;22.45;;;12.95;;
36923;SDS011;22841;50.252;18.688;2023-04-02T09:12:26;20.83;;;13.77;;
36923;SDS011;22841;50.252;18.688;2023-04-02T09:15:10;22.17;;;14.70;;
36923;SDS011;22841;50.252;18.688;2023-04-02T09:17:47;27.17;;;15.88;;
36923;SDS011;22841;50.252;18.688;2023-04-02T09:20:22;25.73;;;15.73;;
36923;SDS011;22841;50.252;18.688;2023-04-02T09:25:21;23.58;;;16.15;;
36923;SDS011;22841;50.252;18.688;2023-04-02T09:27:52;24.58;;;16.08;;
36923;SDS011;22841;50.252;18.688;2023-04-02T09:32:58;24.25;;;14.15;;
36923;SDS011;22841;50.252;18.688;2023-04-02T09:35:27;22.13;;;14.10;;
36923;SDS011;22841;50.252;18.688;2023-04-02T09:41:03;20.15;;;12.10;;
36923;SDS011;22841;50.252;18.688;2023-04-02T09:43:34;18.13;;;11.32;;
36923;SDS011;22841;50.252;18.688;2023-04-02T09:46:03;12.90;;;9.38;;
36923;SDS011;22841;50.252;18.688;2023-04-02T09:51:23;20.35;;;11.95;;
36923;SDS011;22841;50.252;18.688;2023-04-02T09:56:30;17.55;;;13.25;;
36923;SDS011;22841;50.252;18.688;2023-04-02T09:59:05;20.42;;;13.95;;
36923;SDS011;22841;50.252;18.688;2023-04-02T10:01:41;18.85;;;12.57;;
36923;SDS011;22841;50.252;18.688;2023-04-02T10:10:16;18.80;;;13.65;;
36923;SDS011;22841;50.252;18.688;2023-04-02T10:12:54;25.10;;;16.33;;
36923;SDS011;22841;50.252;18.688;2023-04-02T10:18:05;20.92;;;15.18;;
36923;SDS011;22841;50.252;18.688;2023-04-02T10:20:37;24.45;;;15.82;;
36923;SDS011;22841;50.252;18.688;2023-04-02T10:23:09;22.92;;;15.85;;
36923;SDS011;22841;50.252;18.688;2023-04-02T10:25:41;22.92;;;16.15;;
36923;SDS011;22841;50.252;18.688;2023-04-02T10:30:56;24.92;;;15.63;;
36923;SDS011;22841;50.252;18.688;2023-04-02T10:33:31;27.52;;;17.23;;
36923;SDS011;22841;50.252;18.688;2023-04-02T10:36:15;24.27;;;17.35;;
36923;SDS011;22841;50.252;18.688;2023-04-02T10:38:59;29.30;;;18.23;;
36923;SDS011;22841;50.252;18.688;2023-04-02T10:46:52;26.25;;;17.77;;
36923;SDS011;22841;50.252;18.688;2023-04-02T10:49:36;21.58;;;14.75;;
36923;SDS011;22841;50.252;18.688;2023-04-02T10:52:44;19.50;;;13.90;;
36923;SDS011;22841;50.252;18.688;2023-04-02T10:55:20;23.15;;;14.93;;
36923;SDS011;22841;50.252;18.688;2023-04-02T10:57:50;41.15;;;20.52;;
36923;SDS011;22841;50.252;18.688;2023-04-02T11:00:21;39.63;;;21.42;;
36923;SDS011;22841;50.252;18.688;2023-04-02T11:08:26;50.55;;;22.27;;
36923;SDS011;22841;50.252;18.688;2023-04-02T11:11:08;45.72;;;19.80;;
36923;SDS011;22841;50.252;18.688;2023-04-02T11:13:49;39.70;;;18.10;;
36923;SDS011;22841;50.252;18.688;2023-04-02T11:16:21;16.75;;;10.80;;
36923;SDS011;22841;50.252;18.688;2023-04-02T11:21:38;38.80;;;19.02;;
36923;SDS011;22841;50.252;18.688;2023-04-02T11:37:49;16.98;;;11.48;;
36923;SDS011;22841;50.252;18.688;2023-04-02T11:50:33;19.48;;;13.45;;
36923;SDS011;22841;50.252;18.688;2023-04-02T11:53:02;24.20;;;14.25;;
36923;SDS011;22841;50.252;18.688;2023-04-02T12:10:20;17.33;;;13.00;;
36923;SDS011;22841;50.252;18.688;2023-04-02T12:12:49;27.58;;;18.65;;
36923;SDS011;22841;50.252;18.688;2023-04-02T12:15:33;21.83;;;15.95;;
36923;SDS011;22841;50.252;18.688;2023-04-02T12:18:16;21.65;;;15.90;;
36923;SDS011;22841;50.252;18.688;2023-04-02T12:20:49;19.10;;;15.02;;
36923;SDS011;22841;50.252;18.688;2023-04-02T12:23:29;22.48;;;15.70;;
36923;SDS011;22841;50.252;18.688;2023-04-02T12:25:58;19.38;;;13.77;;
36923;SDS011;22841;50.252;18.688;2023-04-02T12:28:25;21.95;;;15.40;;
36923;SDS011;22841;50.252;18.688;2023-04-02T12:33:34;21.20;;;14.40;;
36923;SDS011;22841;50.252;18.688;2023-04-02T12:36:03;21.92;;;15.65;;
36923;SDS011;22841;50.252;18.688;2023-04-02T12:38:34;22.65;;;16.48;;
36923;SDS011;22841;50.252;18.688;2023-04-02T12:41:24;27.27;;;18.45;;
36923;SDS011;22841;50.252;18.688;2023-04-02T12:44:01;32.45;;;18.88;;
36923;SDS011;22841;50.252;18.688;2023-04-02T12:46:39;27.25;;;18.08;;
36923;SDS011;22841;50.252;18.688;2023-04-02T12:52:13;29.15;;;18.77;;
36923;SDS011;22841;50.252;18.688;2023-04-02T12:54:49;35.30;;;20.45;;
36923;SDS011;22841;50.252;18.688;2023-04-02T12:57:29;30.10;;;19.40;;
36923;SDS011;22841;50.252;18.688;2023-04-02T13:00:02;30.23;;;19.27;;
36923;SDS011;22841;50.252;18.688;2023-04-02T13:05:49;26.25;;;18.35;;
36923;SDS011;22841;50.252;18.688;2023-04-02T13:08:24;27.75;;;17.88;;
36923;SDS011;22841;50.252;18.688;2023-04-02T13:11:00;25.38;;;17.85;;
36923;SDS011;22841;50.252;18.688;2023-04-02T13:13:36;25.42;;;16.85;;
36923;SDS011;22841;50.252;18.688;2023-04-02T13:18:40;29.73;;;18.63;;
36923;SDS011;22841;50.252;18.688;2023-04-02T13:23:45;28.77;;;18.08;;
36923;SDS011;22841;50.252;18.688;2023-04-02T13:26:16;20.30;;;14.25;;
36923;SDS011;22841;50.252;18.688;2023-04-02T13:28:54;21.35;;;15.55;;
36923;SDS011;22841;50.252;18.688;2023-04-02T13:31:21;26.30;;;17.80;;
36923;SDS011;22841;50.252;18.688;2023-04-02T13:33:47;38.28;;;25.23;;
36923;SDS011;22841;50.252;18.688;2023-04-02T13:36:13;25.92;;;17.95;;
36923;SDS011;22841;50.252;18.688;2023-04-02T13:38:40;31.60;;;18.00;;
36923;SDS011;22841;50.252;18.688;2023-04-02T13:41:19;27.92;;;18.48;;
36923;SDS011;22841;50.252;18.688;2023-04-02T13:43:51;30.25;;;20.00;;
36923;SDS011;22841;50.252;18.688;2023-04-02T13:46:23;27.30;;;19.02;;
36923;SDS011;22841;50.252;18.688;2023-04-02T13:48:54;28.92;;;18.90;;
36923;SDS011;22841;50.252;18.688;2023-04-02T13:54:16;26.75;;;16.95;;
36923;SDS011;22841;50.252;18.688;2023-04-02T13:56:53;28.48;;;18.63;;
36923;SDS011;22841;50.252;18.688;2023-04-02T13:59:20;25.00;;;17.02;;
36923;SDS011;22841;50.252;18.688;2023-04-02T14:01:46;26.98;;;19.50;;
36923;SDS011;22841;50.252;18.688;2023-04-02T14:04:16;28.63;;;19.45;;
36923;SDS011;22841;50.252;18.688;2023-04-02T14:23:11;31.50;;;18.33;;
36923;SDS011;22841;50.252;18.688;2023-04-02T14:37:23;32.70;;;21.77;;
36923;SDS011;22841;50.252;18.688;2023-04-02T14:40:11;37.58;;;21.58;;
36923;SDS011;22841;50.252;18.688;2023-04-02T14:43:04;39.70;;;26.98;;
36923;SDS011;22841;50.252;18.688;2023-04-02T14:56:22;29.50;;;19.40;;
36923;SDS011;22841;50.252;18.688;2023-04-02T15:02:02;27.20;;;16.85;;
36923;SDS011;22841;50.252;18.688;2023-04-02T15:04:36;25.02;;;18.00;;
36923;SDS011;22841;50.252;18.688;2023-04-02T15:07:37;31.17;;;19.35;;
36923;SDS011;22841;50.252;18.688;2023-04-02T15:12:54;70.05;;;31.10;;
36923;SDS011;22841;50.252;18.688;2023-04-02T15:18:13;102.90;;;39.22;;
36923;SDS011;22841;50.252;18.688;2023-04-02T15:20:51;83.47;;;31.15;;
36923;SDS011;22841;50.252;18.688;2023-04-02T15:32:29;96.78;;;39.85;;
36923;SDS011;22841;50.252;18.688;2023-04-02T15:40:48;31.98;;;16.95;;
36923;SDS011;22841;50.252;18.688;2023-04-02T15:43:44;27.85;;;15.13;;
36923;SDS011;22841;50.252;18.688;2023-04-02T15:59:39;23.40;;;12.35;;
36923;SDS011;22841;50.252;18.688;2023-04-02T16:08:09;20.92;;;11.10;;
36923;SDS011;22841;50.252;18.688;2023-04-02T16:10:57;19.60;;;11.45;;
36923;SDS011;22841;50.252;18.688;2023-04-02T16:13:31;12.60;;;9.23;;
36923;SDS011;22841;50.252;18.688;2023-04-02T16:16:13;21.42;;;11.65;;
36923;SDS011;22841;50.252;18.688;2023-04-02T16:19:00;19.00;;;10.77;;
36923;SDS011;22841;50.252;18.688;2023-04-02T16:22:04;18.98;;;10.27;;
36923;SDS011;22841;50.252;18.688;2023-04-02T16:27:50;21.27;;;10.70;;
36923;SDS011;22841;50.252;18.688;2023-04-02T16:33:01;27.77;;;13.05;;
36923;SDS011;22841;50.252;18.688;2023-04-02T16:35:46;45.63;;;20.80;;
36923;SDS011;22841;50.252;18.688;2023-04-02T17:02:31;34.42;;;20.52;;
36923;SDS011;22841;50.252;18.688;2023-04-02T17:05:30;139.10;;;46.40;;
36923;SDS011;22841;50.252;18.688;2023-04-02T17:08:29;36.25;;;20.27;;
36923;SDS011;22841;50.252;18.688;2023-04-02T17:11:06;111.30;;;41.47;;
36923;SDS011;22841;50.252;18.688;2023-04-02T17:13:46;347.60;;;101.60;;
36923;SDS011;22841;50.252;18.688;2023-04-02T17:18:46;109.53;;;37.70;;
36923;SDS011;22841;50.252;18.688;2023-04-02T17:21:16;83.57;;;33.78;;
36923;SDS011;22841;50.252;18.688;2023-04-02T17:26:36;63.50;;;21.15;;
36923;SDS011;22841;50.252;18.688;2023-04-02T17:29:06;26.85;;;15.48;;
36923;SDS011;22841;50.252;18.688;2023-04-02T17:31:37;192.05;;;57.28;;
36923;SDS011;22841;50.252;18.688;2023-04-02T17:34:11;153.20;;;46.53;;
36923;SDS011;22841;50.252;18.688;2023-04-02T17:39:30;32.63;;;16.67;;
36923;SDS011;22841;50.252;18.688;2023-04-02T17:42:14;41.17;;;19.25;;
36923;SDS011;22841;50.252;18.688;2023-04-02T17:45:03;22.15;;;12.43;;
36923;SDS011;22841;50.252;18.688;2023-04-02T17:52:58;13.20;;;8.10;;
36923;SDS011;22841;50.252;18.688;2023-04-02T18:01:08;17.75;;;11.32;;
36923;SDS011;22841;50.252;18.688;2023-04-02T18:03:50;17.02;;;9.48;;
36923;SDS011;22841;50.252;18.688;2023-04-02T18:06:31;23.30;;;11.63;;
36923;SDS011;22841;50.252;18.688;2023-04-02T18:09:06;21.30;;;8.98;;
36923;SDS011;22841;50.252;18.688;2023-04-02T18:14:54;27.05;;;11.32;;
36923;SDS011;22841;50.252;18.688;2023-04-02T18:17:33;13.77;;;7.25;;
36923;SDS011;22841;50.252;18.688;2023-04-02T18:37:07;37.33;;;12.48;;
36923;SDS011;22841;50.252;18.688;2023-04-02T18:39:45;32.78;;;12.65;;
36923;SDS011;22841;50.252;18.688;2023-04-02T18:48:38;43.45;;;20.40;;
36923;SDS011;22841;50.252;18.688;2023-04-02T18:51:20;25.88;;;13.45;;
36923;SDS011;22841;50.252;18.688;2023-04-02T18:56:51;15.43;;;9.57;;
36923;SDS011;22841;50.252;18.688;2023-04-02T19:02:09;11.38;;;7.45;;
36923;SDS011;22841;50.252;18.688;2023-04-02T19:04:48;15.07;;;9.43;;
36923;SDS011;22841;50.252;18.688;2023-04-02T19:07:22;24.63;;;12.52;;
36923;SDS011;22841;50.252;18.688;2023-04-02T19:09:51;19.15;;;9.65;;
36923;SDS011;22841;50.252;18.688;2023-04-02T19:12:21;17.13;;;8.63;;
36923;SDS011;22841;50.252;18.688;2023-04-02T19:14:48;17.52;;;9.98;;
36923;SDS011;22841;50.252;18.688;2023-04-02T19:41:38;21.90;;;11.10;;
36923;SDS011;22841;50.252;18.688;2023-04-02T19:44:12;17.40;;;9.57;;
36923;SDS011;22841;50.252;18.688;2023-04-02T19:46:40;40.00;;;16.65;;
36923;SDS011;22841;50.252;18.688;2023-04-02T19:49:14;53.67;;;21.88;;
36923;SDS011;22841;50.252;18.688;2023-04-02T19:51:58;20.13;;;10.20;;
36923;SDS011;22841;50.252;18.688;2023-04-02T19:54:24;38.28;;;13.95;;
36923;SDS011;22841;50.252;18.688;2023-04-02T19:56:50;55.38;;;18.92;;
36923;SDS011;22841;50.252;18.688;2023-04-02T19:59:16;52.95;;;18.27;;
36923;SDS011;22841;50.252;18.688;2023-04-02T20:01:43;19.30;;;9.20;;
36923;SDS011;22841;50.252;18.688;2023-04-02T20:04:09;34.72;;;14.50;;
36923;SDS011;22841;50.252;18.688;2023-04-02T20:06:35;7.75;;;6.93;;
36923;SDS011;22841;50.252;18.688;2023-04-02T20:09:02;16.83;;;9.30;;
36923;SDS011;22841;50.252;18.688;2023-04-02T20:11:28;39.30;;;16.75;;
36923;SDS011;22841;50.252;18.688;2023-04-02T20:13:54;15.95;;;10.50;;
36923;SDS011;22841;50.252;18.688;2023-04-02T20:16:20;25.90;;;13.05;;
36923;SDS011;22841;50.252;18.688;2023-04-02T20:18:47;26.70;;;14.05;;
36923;SDS011;22841;50.252;18.688;2023-04-02T20:21:13;23.27;;;12.57;;
36923;SDS011;22841;50.252;18.688;2023-04-02T20:23:40;35.83;;;15.60;;
36923;SDS011;22841;50.252;18.688;2023-04-02T20:26:06;53.95;;;20.60;;
36923;SDS011;22841;50.252;18.688;2023-04-02T20:28:33;53.75;;;19.60;;
36923;SDS011;22841;50.252;18.688;2023-04-02T20:33:36;40.67;;;17.98;;
36923;SDS011;22841;50.252;18.688;2023-04-02T20:36:03;23.13;;;11.98;;
36923;SDS011;22841;50.252;18.688;2023-04-02T20:38:31;33.65;;;14.48;;
36923;SDS011;22841;50.252;18.688;2023-04-02T20:40:59;24.77;;;11.77;;
36923;SDS011;22841;50.252;18.688;2023-04-02T20:43:26;34.78;;;14.02;;
36923;SDS011;22841;50.252;18.688;2023-04-02T20:45:56;55.63;;;21.52;;
36923;SDS011;22841;50.252;18.688;2023-04-02T20:48:31;42.15;;;16.88;;
36923;SDS011;22841;50.252;18.688;2023-04-02T20:50:58;51.05;;;20.23;;
36923;SDS011;22841;50.252;18.688;2023-04-02T20:53:29;25.33;;;12.02;;
36923;SDS011;22841;50.252;18.688;2023-04-02T20:58:40;42.80;;;16.50;;
36923;SDS011;22841;50.252;18.688;2023-04-02T21:01:07;25.98;;;12.25;;